Altmar, NY

4:42 AM EST on November 24, 2014 (GMT -0500)
Lorton Lake Back End | Change Station
CLOSE
Current Station
Personal Weather Station
Location: Altmar, NY
Elevation: 870 ft
Nearby Weather Stations
Active Advisory: Wind Advisory

Elev 870 ft 43.50 °N, 75.89 °W | Updated 14 minutes ago

Rain
Rain
45.8 °F
Feels Like 43 °F
N
5.0
Wind Variable Wind from East

Today
High -- | Low -- °F
--% Chance of Precip.
Yesterday
High -- | Low -- °F
Precip. -- in
7:08 AM 4:32 PM
Waxing Crescent, 4% visible
Pressure 29.48 in
Visibility 7.0 miles
Clouds Few 900 ft
Mostly Cloudy 2800 ft
Overcast 4400 ft
Windchill 43 °F
Dew Point 45 °F
Humidity 96%
Rainfall 0.00 in
Snow Depth Not available.
UV 0 out of 12
Pollen .10 out of 12
Air Quality Not available.
Flu Activity Not available.
SPECI KFZY 240935Z AUTO VRB06KT 7SM -RA FEW009 BKN028 OVC044 09/08 A2948 RMK AO2 P0010 T00940078

More Conditions Fewer Conditions

Pressure 29.48 in
Visibility 7.0 miles
Clouds Few 900 ft
Mostly Cloudy 2800 ft
Overcast 4400 ft
Windchill 43 °F
Dew Point 45 °F
Humidity 96%
Rainfall 0.00 in
Snow Depth Not available.
UV 0 out of 12
Pollen .10 out of 12
Air Quality Not available.
Flu Activity Not available.
SPECI KFZY 240935Z AUTO VRB06KT 7SM -RA FEW009 BKN028 OVC044 09/08 A2948 RMK AO2 P0010 T00940078

More Conditions Fewer Conditions

10-Day Weather Forecast

Almanac

Astronomy

Nov. 24, 2014 Rise Set
Actual Time
Civil Twilight
Nautical Twilight
Astronomical Twilight
Moon
Length of Visible Light
Length of Day
Tomorrow will be .
, % of the Moon is Illuminated

Today's Extremes

State Highs State Lows

Community

WunderPhotos

Upload Photos

1,773,294 photos uploaded!

WunderBlogs® & News

Nearby

Air Quality

  Air Quality AQ Index Pollutant
Not available.

Snow Depth

Station Depth Elevation

Earthquake Activity

City Distance Mag. Time & Date
Minimum magnitude displayed is 2.5.

Coastal Water Temperatures

Place Temperature

Nearby Weather Stations